Time;durP1;ratioP1;P1;durP2;ratioP2;P2;SDS_P1;SDS_P2;PMS_P1;PMS_P2;Temp;Humidity;BMP_temperature;BMP_pressure;BME280_temperature;BME280_humidity;BME280_pressure;Samples;Min_cycle;Max_cycle;Signal;HPM_P1;HPM_P2
2022/08/23 00:01:20;;;;;;;3.63;3.33;;;24.10;54.20;;;;;;5069700;28;20492;-70
2022/08/23 00:03:46;;;;;;;3.93;3.63;;;24.00;54.10;;;;;;5050269;28;20454;-68
2022/08/23 00:06:12;;;;;;;3.73;3.43;;;24.00;54.20;;;;;;5067149;28;20461;-70
2022/08/23 00:08:38;;;;;;;3.43;3.13;;;23.90;54.10;;;;;;5071505;28;20453;-69
2022/08/23 00:11:05;;;;;;;3.10;2.87;;;23.90;54.10;;;;;;5069349;28;20469;-69
2022/08/23 00:13:32;;;;;;;3.40;3.20;;;23.90;54.20;;;;;;5067109;28;20453;-69
2022/08/23 00:15:59;;;;;;;4.13;3.27;;;23.80;54.20;;;;;;5069617;28;20464;-69
2022/08/23 00:18:25;;;;;;;3.00;2.80;;;23.80;54.20;;;;;;5073020;28;20460;-69
2022/08/23 00:20:51;;;;;;;3.67;2.90;;;23.70;54.20;;;;;;5069321;28;20478;-69
2022/08/23 00:23:17;;;;;;;4.57;3.53;;;23.70;54.30;;;;;;5060842;28;20477;-68
2022/08/23 00:25:43;;;;;;;3.50;3.20;;;23.70;54.40;;;;;;5066221;28;20446;-69
2022/08/23 00:28:09;;;;;;;3.63;3.23;;;23.70;54.50;;;;;;5066882;28;20287;-69
2022/08/23 00:30:35;;;;;;;3.40;3.10;;;23.60;54.20;;;;;;5065116;28;20715;-68
2022/08/23 00:33:01;;;;;;;3.40;3.20;;;23.60;54.20;;;;;;5060797;28;20454;-69
2022/08/23 00:35:27;;;;;;;4.40;3.70;;;23.50;54.30;;;;;;5076292;28;20878;-70
2022/08/23 00:37:57;;;;;;;3.87;3.50;;;23.50;54.30;;;;;;5060685;28;20710;-70
2022/08/23 00:40:23;;;;;;;4.63;3.60;;;23.50;54.20;;;;;;5051970;28;20537;-67
2022/08/23 00:48:29;;;;;;;3.73;3.30;;;23.40;54.30;;;;;;5067488;28;20484;-69
2022/08/23 00:51:09;;;;;;;3.30;3.10;;;23.30;54.50;;;;;;5060467;28;20441;-68
2022/08/23 00:53:39;;;;;;;3.33;3.13;;;23.30;54.50;;;;;;5067389;28;20551;-68
2022/08/23 00:56:08;;;;;;;4.10;3.10;;;23.20;54.60;;;;;;5068980;28;20461;-68
2022/08/23 00:58:34;;;;;;;4.17;3.13;;;23.10;54.60;;;;;;5085511;28;20483;-68
2022/08/23 01:01:01;;;;;;;3.20;3.00;;;23.00;54.80;;;;;;5074596;28;20449;-69
2022/08/23 01:03:31;;;;;;;3.30;3.07;;;23.10;54.80;;;;;;5065298;28;20449;-69
2022/08/23 01:06:14;;;;;;;4.20;3.43;;;23.10;54.80;;;;;;5068541;28;20445;-69
2022/08/23 01:08:48;;;;;;;3.50;3.20;;;23.10;54.80;;;;;;5056724;28;20442;-69
2022/08/23 01:11:25;;;;;;;3.60;3.30;;;23.10;54.80;;;;;;5047726;28;20473;-69
2022/08/23 01:14:02;;;;;;;3.10;2.90;;;23.00;54.80;;;;;;5058482;28;20479;-69
2022/08/23 01:16:44;;;;;;;7.57;3.10;;;23.00;54.70;;;;;;5082553;28;20457;-69
2022/08/23 01:19:41;;;;;;;3.30;3.10;;;23.00;54.80;;;;;;5038353;28;20482;-69
2022/08/23 01:22:13;;;;;;;3.70;3.40;;;22.90;54.70;;;;;;5054409;28;20456;-70
2022/08/23 01:24:40;;;;;;;3.67;3.37;;;22.90;54.80;;;;;;5044024;28;20465;-70
2022/08/23 01:27:06;;;;;;;3.10;2.87;;;22.80;54.80;;;;;;5062469;28;20545;-70
2022/08/23 01:29:32;;;;;;;3.83;3.53;;;22.70;54.80;;;;;;5068440;28;20615;-70
2022/08/23 01:31:59;;;;;;;3.47;3.20;;;22.70;54.90;;;;;;5066612;28;20506;-69
2022/08/23 01:34:27;;;;;;;3.80;3.50;;;22.70;54.90;;;;;;5082476;28;20469;-70
2022/08/23 01:36:55;;;;;;;3.03;2.83;;;22.70;54.90;;;;;;5068551;28;20517;-68
2022/08/23 01:39:22;;;;;;;4.47;3.67;;;22.70;54.90;;;;;;5068160;28;20449;-70
2022/08/23 01:41:47;;;;;;;3.50;3.30;;;22.60;54.90;;;;;;5084914;28;20452;-70
2022/08/23 01:44:13;;;;;;;3.73;3.43;;;22.50;54.90;;;;;;5065191;28;20223;-68
2022/08/23 01:46:44;;;;;;;3.93;3.53;;;22.50;55.20;;;;;;5057573;28;20274;-68
2022/08/23 01:49:11;;;;;;;4.20;3.80;;;22.50;55.20;;;;;;5048167;28;20547;-69
2022/08/23 01:51:37;;;;;;;3.27;2.97;;;22.50;55.00;;;;;;5059847;28;20449;-69
2022/08/23 01:54:03;;;;;;;4.20;3.20;;;22.50;55.10;;;;;;5052447;28;20541;-69
2022/08/23 01:56:31;;;;;;;3.83;3.53;;;22.40;55.10;;;;;;5069260;28;20465;-69
2022/08/23 01:58:57;;;;;;;3.63;3.33;;;22.30;55.20;;;;;;5049054;28;20460;-70
2022/08/23 02:01:25;;;;;;;6.03;3.80;;;22.30;55.20;;;;;;5062192;28;20441;-70
2022/08/23 02:03:51;;;;;;;3.70;3.40;;;22.40;55.70;;;;;;5041376;28;20491;-70
2022/08/23 02:06:17;;;;;;;4.30;3.90;;;22.30;55.20;;;;;;5064117;28;20215;-69
2022/08/23 02:09:02;;;;;;;4.13;3.70;;;22.30;55.60;;;;;;5084839;28;20227;-69
2022/08/23 02:11:36;;;;;;;3.90;3.60;;;22.20;55.30;;;;;;5064428;28;20446;-69
2022/08/23 02:14:06;;;;;;;3.53;3.33;;;22.20;55.30;;;;;;5045732;28;20953;-69
2022/08/23 02:16:44;;;;;;;3.93;3.63;;;22.10;55.30;;;;;;5060166;28;20482;-69
2022/08/23 02:19:13;;;;;;;3.97;3.60;;;22.10;55.30;;;;;;5068107;28;20514;-70
2022/08/23 02:21:40;;;;;;;3.50;3.30;;;22.00;55.40;;;;;;5075251;28;21299;-69
2022/08/23 02:24:11;;;;;;;5.00;4.30;;;22.00;55.40;;;;;;5064489;28;20474;-68
2022/08/23 02:26:42;;;;;;;4.10;3.70;;;22.00;55.40;;;;;;5063914;28;20506;-68
2022/08/23 02:29:08;;;;;;;3.90;3.60;;;22.00;55.50;;;;;;5050062;28;20464;-67
2022/08/23 02:31:34;;;;;;;12.07;4.30;;;21.90;55.60;;;;;;5067370;28;20461;-70
2022/08/23 02:34:00;;;;;;;5.90;4.00;;;21.80;56.00;;;;;;5067164;28;20226;-70
2022/08/23 02:36:28;;;;;;;4.40;4.00;;;21.90;55.90;;;;;;5064791;28;20462;-69
2022/08/23 02:38:55;;;;;;;5.47;3.70;;;21.80;55.80;;;;;;5064506;28;20470;-69
2022/08/23 02:41:22;;;;;;;3.87;3.57;;;21.80;55.80;;;;;;5047919;28;20471;-70
2022/08/23 02:43:51;;;;;;;5.60;3.90;;;21.80;55.70;;;;;;5061942;28;20652;-69
2022/08/23 02:46:18;;;;;;;6.37;4.17;;;21.80;55.70;;;;;;5064614;28;21076;-68
2022/08/23 02:48:45;;;;;;;5.83;3.83;;;21.80;55.60;;;;;;5048712;28;20866;-69
2022/08/23 02:51:10;;;;;;;3.43;3.13;;;21.80;55.70;;;;;;5070973;28;20448;-70
2022/08/23 02:53:37;;;;;;;4.10;3.70;;;21.80;55.70;;;;;;5046253;28;20219;-69
2022/08/23 02:56:06;;;;;;;4.73;4.20;;;21.80;55.70;;;;;;5067705;28;20228;-70
2022/08/23 02:58:32;;;;;;;3.90;3.50;;;21.70;55.70;;;;;;5069635;28;20456;-70
2022/08/23 03:00:59;;;;;;;4.20;3.10;;;21.70;55.80;;;;;;5070102;28;20211;-69
2022/08/23 03:03:26;;;;;;;4.80;3.57;;;21.70;55.80;;;;;;5070837;28;20446;-69
2022/08/23 03:05:52;;;;;;;3.80;3.50;;;21.60;55.80;;;;;;5071564;28;20506;-69
2022/08/23 03:08:20;;;;;;;4.53;3.30;;;21.60;56.00;;;;;;5069374;28;20473;-69
2022/08/23 03:10:49;;;;;;;8.40;3.70;;;21.60;55.90;;;;;;5071054;28;21046;-69
2022/08/23 03:13:16;;;;;;;3.97;3.60;;;21.50;55.80;;;;;;5067047;28;20468;-69
2022/08/23 03:15:43;;;;;;;4.23;3.37;;;21.50;55.80;;;;;;5070311;28;20465;-69
2022/08/23 03:18:11;;;;;;;6.67;3.60;;;21.50;55.90;;;;;;5087506;28;20458;-69
2022/08/23 03:20:40;;;;;;;4.10;3.70;;;21.50;56.10;;;;;;5053706;28;20231;-69
2022/08/23 03:23:08;;;;;;;4.13;3.83;;;21.40;56.00;;;;;;5060025;28;20477;-69
2022/08/23 03:25:34;;;;;;;3.97;3.60;;;21.40;56.00;;;;;;5056284;28;20445;-69
2022/08/23 03:28:13;;;;;;;3.60;3.30;;;21.40;56.00;;;;;;5054576;28;20480;-68
2022/08/23 03:30:43;;;;;;;5.40;3.70;;;21.40;56.10;;;;;;5070066;28;20456;-69
2022/08/23 03:33:09;;;;;;;4.40;3.80;;;21.30;56.10;;;;;;5068944;28;20480;-69
2022/08/23 03:35:35;;;;;;;4.13;3.70;;;21.30;56.10;;;;;;5068184;28;20869;-69
2022/08/23 03:38:02;;;;;;;3.20;3.00;;;21.30;56.20;;;;;;5066957;28;20214;-69
2022/08/23 03:40:28;;;;;;;5.10;4.07;;;21.20;56.20;;;;;;5068545;28;20453;-70
2022/08/23 03:42:54;;;;;;;4.20;3.77;;;21.20;56.30;;;;;;5066781;28;20340;-69
2022/08/23 03:45:22;;;;;;;3.70;3.40;;;21.20;56.40;;;;;;5071080;28;20225;-69
2022/08/23 03:47:49;;;;;;;6.20;3.67;;;21.20;56.30;;;;;;5051738;28;20529;-69
2022/08/23 03:50:15;;;;;;;4.20;3.80;;;21.20;56.30;;;;;;5070697;28;20553;-69
2022/08/23 03:52:42;;;;;;;4.13;3.83;;;21.20;56.40;;;;;;5069170;27;20998;-69
2022/08/23 03:55:08;;;;;;;4.37;3.97;;;21.10;56.40;;;;;;5065993;28;20462;-70
2022/08/23 03:57:36;;;;;;;4.13;3.73;;;21.00;56.50;;;;;;5070433;28;20483;-68
2022/08/23 04:00:05;;;;;;;3.93;3.30;;;20.90;56.40;;;;;;5061238;28;20461;-67
2022/08/23 04:02:40;;;;;;;5.87;3.53;;;21.00;56.70;;;;;;5069455;28;20678;-69
2022/08/23 04:05:09;;;;;;;3.97;3.20;;;20.90;56.50;;;;;;5050756;28;21122;-69
2022/08/23 04:07:52;;;;;;;4.20;3.57;;;21.00;56.60;;;;;;5081357;27;20464;-67
2022/08/23 04:10:22;;;;;;;4.80;3.70;;;20.90;56.70;;;;;;5054374;28;20457;-69
2022/08/23 04:12:53;;;;;;;3.30;3.10;;;20.90;56.70;;;;;;5070312;28;20445;-68
2022/08/23 04:15:19;;;;;;;3.83;3.50;;;20.90;56.80;;;;;;5068345;28;21053;-69
2022/08/23 04:17:46;;;;;;;6.17;3.70;;;20.90;56.80;;;;;;5071251;28;20453;-70
2022/08/23 04:20:13;;;;;;;5.60;3.80;;;20.90;56.80;;;;;;5072113;28;20453;-69
2022/08/23 04:23:08;;;;;;;4.27;3.90;;;20.80;56.80;;;;;;5066724;27;20454;-70
2022/08/23 04:25:44;;;;;;;4.67;4.00;;;20.80;56.80;;;;;;5067212;28;20481;-69
2022/08/23 04:28:10;;;;;;;4.00;3.60;;;20.80;56.90;;;;;;5052569;28;20917;-69
2022/08/23 04:30:36;;;;;;;4.97;4.03;;;20.70;56.80;;;;;;5052902;28;20235;-67
2022/08/23 04:33:03;;;;;;;4.00;3.53;;;20.70;56.80;;;;;;5066665;28;20523;-70
2022/08/23 04:35:31;;;;;;;3.83;3.53;;;20.70;57.10;;;;;;5063634;28;20224;-70
2022/08/23 04:37:57;;;;;;;3.70;3.37;;;20.70;57.40;;;;;;5061342;28;20438;-68
2022/08/23 04:43:08;;;;;;;3.60;3.27;;;20.60;57.10;;;;;;5081559;28;20469;-69
2022/08/23 04:45:37;;;;;;;4.80;4.40;;;20.60;57.20;;;;;;5052753;28;20466;-69
2022/08/23 04:48:04;;;;;;;3.50;3.30;;;20.50;57.10;;;;;;5067505;28;20453;-68
2022/08/23 04:50:31;;;;;;;4.17;3.77;;;20.50;57.30;;;;;;5068011;28;20457;-69
2022/08/23 04:53:16;;;;;;;3.97;3.67;;;20.50;57.20;;;;;;5074177;28;20458;-69
2022/08/23 04:56:09;;;;;;;4.43;4.10;;;20.50;57.20;;;;;;5073471;27;20533;-69
2022/08/23 04:58:37;;;;;;;4.37;3.57;;;20.40;57.20;;;;;;5054432;28;20837;-69
2022/08/23 05:01:06;;;;;;;5.80;3.77;;;20.40;57.20;;;;;;5070927;28;21040;-69
2022/08/23 05:03:33;;;;;;;5.73;3.97;;;20.40;57.20;;;;;;5066099;28;20451;-69
2022/08/23 05:06:00;;;;;;;4.77;3.73;;;20.40;57.30;;;;;;5066337;28;20539;-69
2022/08/23 05:08:34;;;;;;;4.30;3.47;;;20.40;57.30;;;;;;5039932;28;20465;-69
2022/08/23 05:11:04;;;;;;;4.10;3.80;;;20.40;57.40;;;;;;5069447;28;20453;-69
2022/08/23 05:13:31;;;;;;;5.83;4.10;;;20.40;57.40;;;;;;5071223;27;20457;-68
2022/08/23 05:15:57;;;;;;;4.00;3.70;;;20.40;57.30;;;;;;5061946;28;20469;-70
2022/08/23 05:18:26;;;;;;;5.27;3.37;;;20.40;57.30;;;;;;5052234;28;20834;-69
2022/08/23 05:20:52;;;;;;;4.13;3.83;;;20.40;57.30;;;;;;5055441;28;20462;-69
2022/08/23 05:23:18;;;;;;;4.33;3.93;;;20.40;58.00;;;;;;5032148;28;20512;-69
2022/08/23 05:25:52;;;;;;;4.13;3.50;;;20.30;57.80;;;;;;5048698;28;20545;-69
2022/08/23 05:28:31;;;;;;;3.60;3.33;;;20.30;57.50;;;;;;5059373;28;20465;-70
2022/08/23 05:31:00;;;;;;;4.20;3.80;;;20.40;57.70;;;;;;5031076;28;20465;-69
2022/08/23 05:33:28;;;;;;;4.40;4.00;;;20.40;57.70;;;;;;5044833;28;20495;-69
2022/08/23 05:35:54;;;;;;;3.97;3.67;;;20.40;57.40;;;;;;5068637;28;20469;-69
2022/08/23 05:38:20;;;;;;;4.73;4.20;;;20.40;57.90;;;;;;5065348;28;20461;-69
2022/08/23 05:40:51;;;;;;;5.00;3.60;;;20.30;57.60;;;;;;5059577;28;20214;-69
2022/08/23 05:43:18;;;;;;;4.57;4.17;;;20.40;57.70;;;;;;5062840;28;20453;-69
2022/08/23 05:45:45;;;;;;;3.57;3.27;;;20.40;57.70;;;;;;5061579;28;20458;-68
2022/08/23 05:48:14;;;;;;;3.80;3.40;;;20.40;57.60;;;;;;5066714;28;20465;-67
2022/08/23 05:50:47;;;;;;;4.60;3.47;;;20.40;57.80;;;;;;5065384;28;20441;-69
2022/08/23 05:53:12;;;;;;;4.57;3.93;;;20.40;57.80;;;;;;5067573;28;20545;-69
2022/08/23 05:55:40;;;;;;;4.60;3.57;;;20.40;57.70;;;;;;5066207;28;20465;-69
2022/08/23 05:58:17;;;;;;;3.47;3.17;;;20.40;57.70;;;;;;5065174;28;20809;-69
2022/08/23 06:00:44;;;;;;;3.83;3.50;;;20.40;57.80;;;;;;5058735;28;20797;-69
2022/08/23 06:03:09;;;;;;;4.40;4.00;;;20.50;57.90;;;;;;5057883;28;20511;-69
2022/08/23 06:05:40;;;;;;;4.07;3.73;;;20.50;57.90;;;;;;5064845;28;20227;-69
2022/08/23 06:08:06;;;;;;;3.90;3.33;;;20.50;57.80;;;;;;5071804;28;20231;-69
2022/08/23 06:10:35;;;;;;;4.43;3.90;;;20.50;57.90;;;;;;5064525;28;20537;-69
2022/08/23 06:13:06;;;;;;;7.67;4.33;;;20.50;57.90;;;;;;5061418;28;20437;-69
2022/08/23 06:15:32;;;;;;;4.07;3.77;;;20.50;58.10;;;;;;5064471;28;20639;-69
2022/08/23 06:17:58;;;;;;;3.50;3.30;;;20.50;57.80;;;;;;5059511;28;20798;-69
2022/08/23 06:20:24;;;;;;;4.00;3.43;;;20.60;58.10;;;;;;5066519;28;20234;-69
2022/08/23 06:22:56;;;;;;;4.40;3.97;;;20.60;58.20;;;;;;5062011;28;20489;-70
2022/08/23 06:25:22;;;;;;;5.30;3.43;;;20.60;58.70;;;;;;5036078;28;20961;-70
2022/08/23 06:28:06;;;;;;;3.90;3.60;;;20.60;58.80;;;;;;5066413;28;20254;-69
2022/08/23 06:30:32;;;;;;;5.03;3.13;;;20.70;59.00;;;;;;5069110;28;20477;-68
2022/08/23 06:33:00;;;;;;;3.50;3.20;;;20.70;58.80;;;;;;5079132;28;20310;-69
2022/08/23 06:35:44;;;;;;;3.50;3.23;;;20.70;58.90;;;;;;5063698;28;20469;-69
2022/08/23 06:38:16;;;;;;;4.43;3.20;;;20.80;59.10;;;;;;5073474;28;20483;-69
2022/08/23 06:41:12;;;;;;;3.10;2.90;;;20.80;59.00;;;;;;5059475;28;20461;-68
2022/08/23 06:43:41;;;;;;;4.77;3.80;;;20.90;59.50;;;;;;5063851;28;20444;-69
2022/08/23 06:46:22;;;;;;;3.73;3.43;;;20.90;59.00;;;;;;5049081;28;20544;-69
2022/08/23 06:48:48;;;;;;;4.10;3.30;;;21.00;59.30;;;;;;5050240;28;20456;-69
2022/08/23 06:51:23;;;;;;;8.50;3.63;;;21.00;59.50;;;;;;5075601;28;20458;-70
2022/08/23 06:53:54;;;;;;;3.67;3.27;;;21.10;59.50;;;;;;5048574;28;20222;-69
2022/08/23 06:56:46;;;;;;;3.30;3.10;;;21.10;59.30;;;;;;5066127;28;20450;-68
2022/08/23 06:59:16;;;;;;;3.70;3.20;;;21.20;59.40;;;;;;5061874;28;20524;-69
2022/08/23 07:01:54;;;;;;;5.20;3.60;;;21.20;59.40;;;;;;5061317;28;20536;-69
2022/08/23 07:04:27;;;;;;;3.37;3.17;;;21.30;59.60;;;;;;5052745;28;20482;-69
2022/08/23 07:07:07;;;;;;;3.50;3.30;;;21.40;59.50;;;;;;5063628;28;21075;-69
2022/08/23 07:09:34;;;;;;;3.53;3.20;;;21.40;59.60;;;;;;5062337;28;20437;-69
2022/08/23 07:12:00;;;;;;;3.40;3.13;;;21.50;59.80;;;;;;5067824;28;20537;-68
2022/08/23 07:14:26;;;;;;;3.50;3.20;;;21.50;59.50;;;;;;5077377;28;20904;-69
2022/08/23 07:16:58;;;;;;;4.17;3.87;;;21.60;60.00;;;;;;5062771;28;20227;-70
2022/08/23 07:19:27;;;;;;;3.20;3.00;;;21.70;59.90;;;;;;5063590;28;20525;-70
2022/08/23 07:21:54;;;;;;;3.60;3.30;;;21.70;59.60;;;;;;5075487;28;20450;-70
2022/08/23 07:24:21;;;;;;;4.10;3.67;;;21.80;60.10;;;;;;5065060;28;20535;-69
2022/08/23 07:26:49;;;;;;;3.60;3.30;;;21.90;60.20;;;;;;5074740;28;20458;-69
2022/08/23 07:29:16;;;;;;;4.00;3.60;;;21.90;60.10;;;;;;5061285;28;20454;-70
2022/08/23 07:31:45;;;;;;;4.13;3.83;;;22.00;60.20;;;;;;5069100;28;20441;-70
2022/08/23 07:34:11;;;;;;;3.80;3.50;;;22.10;60.50;;;;;;5070150;28;20481;-70
2022/08/23 07:36:41;;;;;;;3.83;3.50;;;22.20;60.60;;;;;;5066128;28;20459;-70
2022/08/23 07:39:08;;;;;;;4.47;3.00;;;22.30;61.40;;;;;;5063536;28;20515;-70
2022/08/23 07:41:36;;;;;;;6.93;4.47;;;22.40;59.90;;;;;;5064841;28;20950;-70
2022/08/23 07:44:04;;;;;;;3.67;3.37;;;22.40;59.80;;;;;;5045042;28;20966;-71
2022/08/23 07:46:31;;;;;;;3.93;3.30;;;22.40;60.20;;;;;;5067788;28;20453;-69
2022/08/23 07:48:59;;;;;;;7.07;3.70;;;22.40;59.60;;;;;;5082785;28;20450;-70
2022/08/23 07:51:32;;;;;;;3.70;3.33;;;22.40;60.00;;;;;;5071710;28;20449;-70
2022/08/23 07:54:01;;;;;;;4.70;3.47;;;22.50;60.20;;;;;;5069522;28;20480;-71
2022/08/23 07:56:27;;;;;;;3.80;3.40;;;22.60;60.50;;;;;;5079090;28;20478;-71
2022/08/23 07:59:13;;;;;;;5.80;3.57;;;22.70;60.70;;;;;;5062071;28;20494;-70
2022/08/23 08:02:00;;;;;;;4.30;3.23;;;22.80;61.10;;;;;;5049859;28;20561;-67
2022/08/23 08:04:26;;;;;;;4.00;3.70;;;23.00;61.30;;;;;;5065652;28;20902;-70
2022/08/23 08:06:51;;;;;;;4.80;3.60;;;23.20;61.40;;;;;;5053358;28;20491;-69
2022/08/23 08:09:21;;;;;;;5.83;4.03;;;23.30;60.80;;;;;;5069137;28;20284;-69
2022/08/23 08:11:47;;;;;;;3.30;3.10;;;23.30;60.60;;;;;;5048405;28;20873;-71
2022/08/23 08:14:16;;;;;;;3.93;3.60;;;23.40;60.60;;;;;;5063895;28;20457;-71
2022/08/23 08:16:57;;;;;;;4.00;3.70;;;23.50;61.00;;;;;;5063837;28;20904;-70
2022/08/23 08:19:52;;;;;;;5.57;5.07;;;23.60;60.50;;;;;;5084163;28;20535;-70
2022/08/23 08:22:37;;;;;;;5.73;4.07;;;23.60;60.40;;;;;;5062506;28;20500;-71
2022/08/23 08:25:35;;;;;;;3.97;3.67;;;23.70;60.10;;;;;;5051955;28;20972;-70
2022/08/23 08:28:04;;;;;;;4.57;3.47;;;23.80;60.20;;;;;;5066117;28;21022;-70
2022/08/23 08:30:30;;;;;;;4.13;3.83;;;23.90;60.50;;;;;;5057529;28;20544;-70
2022/08/23 08:32:56;;;;;;;4.37;3.80;;;24.00;60.60;;;;;;5066028;28;20574;-71
2022/08/23 08:35:23;;;;;;;3.53;3.33;;;24.10;60.50;;;;;;5067251;28;20465;-71
2022/08/23 08:37:49;;;;;;;7.60;5.27;;;24.20;60.20;;;;;;5062941;28;20261;-70
2022/08/23 08:40:25;;;;;;;5.03;3.50;;;24.40;60.20;;;;;;5055795;28;20441;-70
2022/08/23 08:43:12;;;;;;;4.53;3.90;;;24.40;59.90;;;;;;5073679;28;20450;-71
2022/08/23 08:46:06;;;;;;;5.13;4.17;;;24.50;59.90;;;;;;5067900;28;20452;-71
2022/08/23 08:48:47;;;;;;;4.00;3.70;;;24.60;60.10;;;;;;5051428;28;20553;-70
2022/08/23 08:51:30;;;;;;;4.37;3.80;;;24.80;59.90;;;;;;5044484;28;20480;-70
2022/08/23 08:53:57;;;;;;;3.67;3.47;;;24.90;59.90;;;;;;5047415;28;20446;-70
2022/08/23 08:56:38;;;;;;;4.83;4.43;;;25.00;59.80;;;;;;5069702;28;20545;-69
2022/08/23 08:59:21;;;;;;;4.03;3.63;;;25.20;59.70;;;;;;5079647;28;20463;-71
2022/08/23 09:01:48;;;;;;;4.33;4.03;;;25.30;59.60;;;;;;5061780;28;20598;-68
2022/08/23 09:04:21;;;;;;;5.10;4.50;;;25.50;59.50;;;;;;5052442;28;20462;-69
2022/08/23 09:07:14;;;;;;;5.47;5.07;;;25.50;59.40;;;;;;5050759;28;20964;-69
2022/08/23 09:10:04;;;;;;;4.40;4.00;;;25.60;59.50;;;;;;5046124;28;20478;-68
2022/08/23 09:12:52;;;;;;;4.37;3.97;;;25.80;59.40;;;;;;5058668;28;20461;-69
2022/08/23 09:15:50;;;;;;;5.33;4.30;;;25.80;59.60;;;;;;5064521;28;20478;-69
2022/08/23 09:18:17;;;;;;;4.83;4.33;;;25.80;58.80;;;;;;5049265;28;20981;-69
2022/08/23 09:20:46;;;;;;;4.70;4.23;;;26.00;59.10;;;;;;5064388;28;20441;-68
2022/08/23 09:23:33;;;;;;;5.07;4.40;;;26.00;59.20;;;;;;5064497;28;20462;-69
2022/08/23 09:26:01;;;;;;;4.63;4.23;;;26.30;58.80;;;;;;5065888;28;20488;-69
2022/08/23 09:28:36;;;;;;;5.43;5.03;;;26.50;58.70;;;;;;5062630;28;20443;-69
2022/08/23 09:31:04;;;;;;;4.17;3.87;;;26.50;58.60;;;;;;5063487;28;20447;-69
2022/08/23 09:33:41;;;;;;;4.97;4.47;;;26.50;58.40;;;;;;5063541;28;20473;-69
2022/08/23 09:36:20;;;;;;;5.20;4.70;;;26.60;58.50;;;;;;5059642;28;20474;-68
2022/08/23 09:39:02;;;;;;;4.80;4.40;;;26.70;58.70;;;;;;5062928;28;20453;-69
2022/08/23 09:41:37;;;;;;;4.73;4.23;;;26.90;58.60;;;;;;5058551;28;20474;-69
2022/08/23 09:44:12;;;;;;;4.30;4.00;;;27.20;58.10;;;;;;5059144;28;20225;-69
2022/08/23 09:46:41;;;;;;;5.13;4.73;;;27.30;58.10;;;;;;5053266;28;20224;-69
2022/08/23 09:49:29;;;;;;;4.30;4.00;;;27.50;57.90;;;;;;5064034;28;20486;-69
2022/08/23 09:52:34;;;;;;;5.03;4.53;;;27.40;57.50;;;;;;5056342;28;20225;-68
2022/08/23 09:55:09;;;;;;;4.47;4.07;;;27.50;57.80;;;;;;5033853;28;20494;-68
2022/08/23 09:57:46;;;;;;;5.17;4.20;;;27.70;57.90;;;;;;5080984;28;20714;-69
2022/08/23 10:00:16;;;;;;;7.50;5.40;;;27.80;57.80;;;;;;5066543;28;20315;-69
2022/08/23 10:02:43;;;;;;;4.33;3.93;;;27.80;57.40;;;;;;5040810;28;20237;-69
2022/08/23 10:05:36;;;;;;;5.70;4.55;;;27.90;57.60;;;;;;5052085;28;20696;-69
2022/08/23 10:08:03;;;;;;;5.18;4.68;;;28.00;57.50;;;;;;5067187;28;20339;-69
2022/08/23 10:10:45;;;;;;;5.60;4.80;;;28.20;57.20;;;;;;5068957;28;20609;-69
2022/08/23 10:13:14;;;;;;;5.07;4.40;;;28.30;57.10;;;;;;5077659;28;20216;-68
2022/08/23 10:15:59;;;;;;;4.88;4.47;;;28.60;56.40;;;;;;5053345;28;20264;-69
2022/08/23 10:18:42;;;;;;;4.32;3.92;;;28.90;56.00;;;;;;5050598;28;20220;-69
2022/08/23 10:21:36;;;;;;;5.50;5.00;;;29.00;56.20;;;;;;5063597;28;20255;-69
2022/08/23 10:24:12;;;;;;;4.75;4.45;;;29.10;56.30;;;;;;5059363;28;20251;-69
2022/08/23 10:26:45;;;;;;;6.00;4.35;;;29.20;56.30;;;;;;5066332;28;20730;-69
2022/08/23 10:29:39;;;;;;;3.92;3.63;;;29.30;56.10;;;;;;5051411;28;20298;-69
2022/08/23 10:32:08;;;;;;;11.02;4.88;;;29.30;56.20;;;;;;5064500;28;20273;-69
2022/08/23 10:35:00;;;;;;;4.50;4.10;;;29.40;56.20;;;;;;5070361;28;20232;-69
2022/08/23 10:37:53;;;;;;;4.15;3.90;;;29.50;56.60;;;;;;5067252;28;20311;-69
2022/08/23 10:40:38;;;;;;;7.80;4.60;;;29.50;56.10;;;;;;5053483;28;20634;-69
2022/08/23 10:43:15;;;;;;;4.22;3.92;;;29.70;56.20;;;;;;5058753;28;20597;-68
2022/08/23 10:45:46;;;;;;;5.03;4.63;;;29.90;56.10;;;;;;5067478;28;20660;-69
2022/08/23 10:48:30;;;;;;;4.60;4.30;;;29.90;55.90;;;;;;5078494;28;20226;-69
2022/08/23 10:50:58;;;;;;;4.78;4.30;;;30.00;56.00;;;;;;5071064;28;20347;-69
2022/08/23 10:53:45;;;;;;;4.47;4.18;;;30.10;55.50;;;;;;5068865;28;20231;-69
2022/08/23 10:56:17;;;;;;;4.40;4.10;;;30.30;55.50;;;;;;5067275;28;20223;-68
2022/08/23 10:58:50;;;;;;;5.07;4.68;;;30.40;55.40;;;;;;5068354;28;20232;-69
2022/08/23 11:01:23;;;;;;;4.68;4.28;;;30.50;55.50;;;;;;5072311;28;20280;-69
2022/08/23 11:04:05;;;;;;;5.40;4.20;;;30.60;55.70;;;;;;5044936;28;20215;-69
2022/08/23 11:06:50;;;;;;;4.68;4.38;;;30.70;55.20;;;;;;5073834;28;20245;-70
2022/08/23 11:09:16;;;;;;;5.15;4.57;;;31.00;54.70;;;;;;5064998;28;20691;-69
2022/08/23 11:11:46;;;;;;;5.05;4.65;;;31.10;54.60;;;;;;5052630;28;20703;-69
2022/08/23 11:14:27;;;;;;;4.55;4.22;;;31.20;54.20;;;;;;5064984;28;20223;-69
2022/08/23 11:17:02;;;;;;;5.00;4.50;;;31.20;54.20;;;;;;5063942;28;20318;-68
2022/08/23 11:19:48;;;;;;;6.10;4.57;;;31.40;53.90;;;;;;5072083;28;20274;-69
2022/08/23 11:22:43;;;;;;;5.93;4.80;;;31.60;53.20;;;;;;5062648;28;20223;-69
2022/08/23 11:25:15;;;;;;;4.88;4.32;;;31.60;53.30;;;;;;5056148;28;20238;-69
2022/08/23 11:27:43;;;;;;;7.78;4.65;;;31.80;52.80;;;;;;5066084;28;20235;-69
2022/08/23 11:30:31;;;;;;;4.70;4.28;;;31.90;53.00;;;;;;5062714;28;20214;-69
2022/08/23 11:33:33;;;;;;;4.40;4.10;;;31.80;53.20;;;;;;5039951;28;20678;-69
2022/08/23 11:36:08;;;;;;;4.97;4.57;;;31.70;53.00;;;;;;5048127;28;20663;-69
2022/08/23 11:38:47;;;;;;;5.60;5.10;;;31.70;53.20;;;;;;5066269;28;20218;-69
2022/08/23 11:41:23;;;;;;;5.32;4.82;;;31.80;53.20;;;;;;5064616;28;20262;-69
2022/08/23 11:44:12;;;;;;;4.63;4.32;;;31.90;52.80;;;;;;5046362;28;20239;-69
2022/08/23 11:46:53;;;;;;;4.78;4.47;;;32.00;53.20;;;;;;5064346;28;20207;-69
2022/08/23 11:49:29;;;;;;;5.72;4.50;;;32.10;53.20;;;;;;5065319;28;20218;-69
2022/08/23 11:52:02;;;;;;;4.68;4.22;;;32.20;52.80;;;;;;5063037;28;20237;-70
2022/08/23 11:55:05;;;;;;;5.07;4.78;;;32.30;52.10;;;;;;5057103;28;20322;-69
2022/08/23 11:58:08;;;;;;;4.95;4.63;;;32.40;52.30;;;;;;5075310;28;20245;-70
2022/08/23 12:00:53;;;;;;;4.60;4.15;;;32.30;52.20;;;;;;5041032;28;20680;-69
2022/08/23 12:03:51;;;;;;;4.70;4.32;;;32.20;52.20;;;;;;5056925;28;20231;-70
2022/08/23 12:06:42;;;;;;;4.97;4.57;;;32.10;52.60;;;;;;5003977;28;20231;-69
2022/08/23 12:09:23;;;;;;;4.90;4.50;;;32.10;52.40;;;;;;5060271;28;20223;-69
2022/08/23 12:11:55;;;;;;;4.15;3.85;;;32.20;52.40;;;;;;5062468;28;20227;-70
2022/08/23 12:14:29;;;;;;;5.32;4.78;;;32.30;52.40;;;;;;5062703;28;20219;-69
2022/08/23 12:16:59;;;;;;;4.35;4.05;;;32.70;51.60;;;;;;5046443;28;20230;-70
2022/08/23 12:19:36;;;;;;;4.80;4.28;;;33.00;51.50;;;;;;5063299;28;20334;-70
2022/08/23 12:22:14;;;;;;;5.20;4.15;;;33.10;51.00;;;;;;5066240;28;20234;-68
2022/08/23 12:24:47;;;;;;;4.60;4.30;;;33.10;51.30;;;;;;5042458;27;20663;-69
2022/08/23 12:27:35;;;;;;;4.32;4.03;;;33.10;51.00;;;;;;5067031;28;20218;-69
2022/08/23 12:30:09;;;;;;;4.88;4.47;;;33.20;50.90;;;;;;5073690;28;20666;-69
2022/08/23 12:32:50;;;;;;;4.97;4.30;;;33.20;51.30;;;;;;5061706;28;20221;-69
2022/08/23 12:35:27;;;;;;;4.40;4.10;;;33.20;51.30;;;;;;5075468;28;20232;-70
2022/08/23 12:38:38;;;;;;;4.32;4.00;;;33.40;50.50;;;;;;5064585;28;20218;-69
2022/08/23 12:41:20;;;;;;;5.13;4.57;;;33.60;50.10;;;;;;5024163;28;20687;-69
2022/08/23 12:44:06;;;;;;;4.35;4.05;;;33.70;50.20;;;;;;5062930;28;20222;-70
2022/08/23 12:46:46;;;;;;;4.60;4.20;;;33.70;49.50;;;;;;5077852;28;20754;-69
2022/08/23 12:49:30;;;;;;;4.32;4.03;;;33.90;49.40;;;;;;5060948;28;20215;-69
2022/08/23 12:52:00;;;;;;;4.35;4.05;;;34.10;49.30;;;;;;5063913;28;20218;-69
2022/08/23 12:54:36;;;;;;;5.57;5.03;;;34.20;49.00;;;;;;5065731;28;20226;-70
2022/08/23 12:57:08;;;;;;;4.68;4.28;;;34.30;48.60;;;;;;5056900;28;20222;-69
2022/08/23 12:59:54;;;;;;;4.53;4.13;;;34.20;48.90;;;;;;5064740;28;20215;-69
2022/08/23 13:02:26;;;;;;;4.60;4.20;;;34.20;48.30;;;;;;5080701;28;20223;-69
2022/08/23 13:04:56;;;;;;;4.72;4.28;;;34.20;48.60;;;;;;5058492;28;20252;-68
2022/08/23 13:07:23;;;;;;;4.28;3.97;;;34.20;49.20;;;;;;5083889;28;20234;-69
2022/08/23 13:09:49;;;;;;;4.43;4.03;;;34.20;48.90;;;;;;5067887;28;20245;-69
2022/08/23 13:12:17;;;;;;;4.53;4.13;;;34.20;48.40;;;;;;5047799;28;20257;-69
2022/08/23 13:14:48;;;;;;;4.60;4.30;;;34.20;49.00;;;;;;5058761;28;20243;-69
2022/08/23 13:17:16;;;;;;;4.45;4.03;;;34.30;48.70;;;;;;5081539;28;20310;-69
2022/08/23 13:19:42;;;;;;;5.00;4.10;;;34.40;48.40;;;;;;5062592;28;20219;-69
2022/08/23 13:22:20;;;;;;;4.15;3.85;;;34.40;48.70;;;;;;5062616;28;20222;-69
2022/08/23 13:25:09;;;;;;;4.32;3.92;;;34.40;48.60;;;;;;5061600;28;20230;-70
2022/08/23 13:27:57;;;;;;;4.13;3.78;;;34.30;48.20;;;;;;5063802;28;20214;-69